Time;durP1;ratioP1;P1;durP2;ratioP2;P2;SDS_P1;SDS_P2;PMS_P1;PMS_P2;Temp;Humidity;BMP_temperature;BMP_pressure;BME280_temperature;BME280_humidity;BME280_pressure;Samples;Min_cycle;Max_cycle;Signal;HPM_P1;HPM_P2
2022/12/07 00:01:05;;;;;;;11.63;6.20;;;;;;;;;;2129604;27;20051;-45
2022/12/07 00:02:06;;;;;;;15.57;6.85;;;;;;;;;;2129634;27;20504;-46
2022/12/07 00:03:07;;;;;;;14.13;6.67;;;;;;;;;;2129774;27;20039;-45
2022/12/07 00:04:10;;;;;;;14.05;7.15;;;;;;;;;;2129614;27;20078;-44
2022/12/07 00:05:11;;;;;;;11.90;6.72;;;;;;;;;;2129603;27;20475;-45
2022/12/07 00:06:13;;;;;;;15.13;6.03;;;;;;;;;;2129653;27;20502;-47
2022/12/07 00:07:14;;;;;;;;;;;;;;;;;;2130197;27;20402;-41
2022/12/07 00:08:15;;;;;;;16.65;6.47;;;;;;;;;;2129726;27;19925;-41
2022/12/07 00:09:17;;;;;;;14.23;6.45;;;;;;;;;;2129318;27;20043;-41
2022/12/07 00:10:18;;;;;;;;;;;;;;;;;;2130210;27;20410;-41
2022/12/07 00:11:20;;;;;;;11.85;5.85;;;;;;;;;;2129600;27;19923;-41
2022/12/07 00:12:20;;;;;;;12.73;6.35;;;;;;;;;;2129610;27;20068;-41
2022/12/07 00:13:22;;;;;;;14.60;7.60;;;;;;;;;;2129679;27;20042;-45
2022/12/07 00:14:22;;;;;;;12.77;6.28;;;;;;;;;;2129509;27;20043;-46
2022/12/07 00:15:24;;;;;;;10.90;6.03;;;;;;;;;;2129609;27;20058;-45
2022/12/07 00:16:26;;;;;;;13.57;6.50;;;;;;;;;;2129453;27;20472;-46
2022/12/07 00:17:28;;;;;;;11.43;6.10;;;;;;;;;;2129557;27;20133;-46
2022/12/07 00:18:28;;;;;;;13.00;6.68;;;;;;;;;;2129611;27;20505;-45
2022/12/07 00:19:30;;;;;;;13.90;6.43;;;;;;;;;;2129741;27;20122;-47
2022/12/07 00:20:31;;;;;;;14.65;6.25;;;;;;;;;;2129589;27;20057;-46
2022/12/07 00:21:33;;;;;;;12.37;5.77;;;;;;;;;;2129555;27;20085;-44
2022/12/07 00:22:34;;;;;;;11.40;6.60;;;;;;;;;;2129596;27;20507;-44
2022/12/07 00:23:35;;;;;;;13.60;6.73;;;;;;;;;;2129348;27;20039;-44
2022/12/07 00:24:36;;;;;;;16.38;6.85;;;;;;;;;;2129475;27;20487;-44
2022/12/07 00:25:37;;;;;;;12.45;6.55;;;;;;;;;;2129439;27;20455;-45
2022/12/07 00:26:39;;;;;;;11.52;6.72;;;;;;;;;;2129515;27;20053;-44
2022/12/07 00:27:40;;;;;;;12.25;6.90;;;;;;;;;;2129655;27;20053;-44
2022/12/07 00:28:41;;;;;;;12.90;6.53;;;;;;;;;;2129509;27;20514;-45
2022/12/07 00:29:42;;;;;;;12.30;6.47;;;;;;;;;;2129516;27;20444;-44
2022/12/07 00:30:43;;;;;;;14.47;6.37;;;;;;;;;;2129471;27;20078;-44
2022/12/07 00:31:45;;;;;;;19.33;8.52;;;;;;;;;;2129438;27;20096;-44
2022/12/07 00:32:46;;;;;;;11.10;6.78;;;;;;;;;;2129447;27;20495;-44
2022/12/07 00:33:48;;;;;;;14.27;6.53;;;;;;;;;;2129496;27;20076;-44
2022/12/07 00:34:49;;;;;;;14.10;7.13;;;;;;;;;;2129541;27;20073;-45
2022/12/07 00:35:54;;;;;;;11.38;7.28;;;;;;;;;;2129365;27;20054;-45
2022/12/07 00:36:55;;;;;;;16.10;6.70;;;;;;;;;;2129615;27;20043;-44
2022/12/07 00:37:56;;;;;;;12.55;6.75;;;;;;;;;;2129281;27;20062;-44
2022/12/07 00:38:58;;;;;;;10.97;5.93;;;;;;;;;;2129382;27;20124;-45
2022/12/07 00:39:59;;;;;;;12.55;6.70;;;;;;;;;;2129584;27;20039;-45
2022/12/07 00:41:02;;;;;;;13.25;7.80;;;;;;;;;;2129515;27;20411;-45
2022/12/07 00:42:03;;;;;;;16.75;7.57;;;;;;;;;;2129414;27;20043;-44
2022/12/07 00:43:04;;;;;;;13.32;6.70;;;;;;;;;;2129472;27;20047;-45
2022/12/07 00:44:05;;;;;;;15.50;6.85;;;;;;;;;;2129035;27;20380;-44
2022/12/07 00:45:07;;;;;;;13.90;6.22;;;;;;;;;;2126902;27;20103;-46
2022/12/07 00:46:08;;;;;;;12.20;6.40;;;;;;;;;;2123731;28;20055;-45
2022/12/07 00:47:10;;;;;;;14.85;6.78;;;;;;;;;;2123684;28;20560;-45
2022/12/07 00:48:11;;;;;;;11.63;6.35;;;;;;;;;;2123798;28;20050;-45
2022/12/07 00:49:12;;;;;;;13.38;5.63;;;;;;;;;;2123625;28;20073;-45
2022/12/07 00:50:13;;;;;;;14.60;7.03;;;;;;;;;;2123774;28;20043;-41
2022/12/07 00:51:15;;;;;;;12.50;6.10;;;;;;;;;;2123809;28;20046;-40
2022/12/07 00:52:16;;;;;;;12.80;7.30;;;;;;;;;;2123592;28;20069;-40
2022/12/07 00:53:17;;;;;;;14.63;7.13;;;;;;;;;;2123699;28;20036;-40
2022/12/07 00:54:18;;;;;;;11.60;5.40;;;;;;;;;;2124549;27;20047;-40
2022/12/07 00:55:19;;;;;;;13.57;6.45;;;;;;;;;;2132113;27;20062;-44
2022/12/07 00:56:21;;;;;;;12.32;6.60;;;;;;;;;;2131671;27;20042;-45
2022/12/07 00:57:22;;;;;;;12.23;6.85;;;;;;;;;;2131819;27;20038;-40
2022/12/07 00:58:23;;;;;;;10.70;6.53;;;;;;;;;;2131783;27;20090;-45
2022/12/07 00:59:24;;;;;;;18.33;6.70;;;;;;;;;;2131595;27;20034;-40
2022/12/07 01:00:25;;;;;;;14.05;6.60;;;;;;;;;;2131633;27;20050;-40
2022/12/07 01:01:27;;;;;;;12.65;5.50;;;;;;;;;;2131679;27;20284;-40
2022/12/07 01:02:28;;;;;;;;;;;;;;;;;;2132126;27;20047;-44
2022/12/07 01:03:30;;;;;;;12.02;5.65;;;;;;;;;;2131954;27;20011;-44
2022/12/07 01:04:33;;;;;;;10.95;5.80;;;;;;;;;;2132038;27;20451;-45
2022/12/07 01:05:34;;;;;;;15.57;6.55;;;;;;;;;;2132222;27;20039;-45
2022/12/07 01:06:35;;;;;;;16.17;6.57;;;;;;;;;;2132246;27;20406;-41
2022/12/07 01:07:36;;;;;;;12.07;5.70;;;;;;;;;;2132040;27;20483;-45
2022/12/07 01:08:37;;;;;;;12.50;7.17;;;;;;;;;;2132111;27;20043;-45
2022/12/07 01:09:38;;;;;;;14.23;6.72;;;;;;;;;;2132278;27;20108;-40
2022/12/07 01:10:39;;;;;;;13.57;7.47;;;;;;;;;;2132176;27;20440;-41
2022/12/07 01:11:40;;;;;;;11.73;6.15;;;;;;;;;;2132114;27;20051;-45
2022/12/07 01:12:41;;;;;;;11.37;6.83;;;;;;;;;;2132295;27;20095;-45
2022/12/07 01:13:42;;;;;;;13.00;6.05;;;;;;;;;;2132109;27;20053;-40
2022/12/07 01:14:44;;;;;;;15.88;7.15;;;;;;;;;;2132144;27;20043;-42
2022/12/07 01:15:44;;;;;;;12.60;7.18;;;;;;;;;;2132281;27;20170;-40
2022/12/07 01:16:46;;;;;;;14.35;7.47;;;;;;;;;;2132000;27;20535;-40
2022/12/07 01:17:47;;;;;;;11.50;6.43;;;;;;;;;;2132241;27;20058;-41
2022/12/07 01:18:49;;;;;;;12.88;6.10;;;;;;;;;;2132167;27;20043;-40
2022/12/07 01:19:50;;;;;;;14.93;8.05;;;;;;;;;;2132103;27;20053;-41
2022/12/07 05:38:17;;;;;;;27.78;14.20;;;;;;;;;;4258416;27;20819;-40
2022/12/07 05:39:18;;;;;;;22.17;11.13;;;;;;;;;;2129419;27;20039;-41
2022/12/07 05:40:19;;;;;;;23.00;11.83;;;;;;;;;;2129476;27;20060;-41
2022/12/07 05:42:51;;;;;;;27.42;11.55;;;;;;;;;;2103016;28;20634;-41
2022/12/07 05:43:51;;;;;;;22.65;10.07;;;;;;;;;;2102993;28;20044;-41
2022/12/07 05:44:53;;;;;;;18.80;10.57;;;;;;;;;;2100780;28;20048;-42
2022/12/07 05:45:53;;;;;;;21.42;10.25;;;;;;;;;;2120808;28;20051;-41
2022/12/07 05:46:55;;;;;;;22.20;10.43;;;;;;;;;;2120925;28;20060;-41
2022/12/07 05:47:56;;;;;;;25.92;11.80;;;;;;;;;;2120903;28;20058;-41
2022/12/07 05:48:57;;;;;;;21.02;11.25;;;;;;;;;;2121011;28;20442;-41
2022/12/07 05:49:58;;;;;;;21.88;12.02;;;;;;;;;;2120961;28;20039;-41
2022/12/07 05:50:59;;;;;;;24.63;11.38;;;;;;;;;;2120814;28;20043;-41
2022/12/07 05:52:00;;;;;;;20.73;11.10;;;;;;;;;;2120878;28;20364;-41
2022/12/07 05:53:01;;;;;;;25.55;11.80;;;;;;;;;;2120822;28;20047;-41
2022/12/07 05:54:03;;;;;;;23.55;9.82;;;;;;;;;;2120842;28;20079;-41
2022/12/07 05:55:06;;;;;;;18.27;9.65;;;;;;;;;;2120865;28;20096;-41
2022/12/07 05:56:07;;;;;;;37.10;12.15;;;;;;;;;;2120788;28;20088;-41
2022/12/07 05:57:08;;;;;;;20.47;10.33;;;;;;;;;;2120726;28;20043;-41
2022/12/07 05:59:28;;;;;;;21.73;9.23;;;;;;;;;;2120770;28;20047;-41
2022/12/07 06:00:29;;;;;;;17.97;9.43;;;;;;;;;;2120903;28;20503;-41
2022/12/07 06:01:30;;;;;;;19.30;8.57;;;;;;;;;;2120675;28;20568;-42
2022/12/07 06:02:32;;;;;;;25.92;12.15;;;;;;;;;;2127600;27;20043;-41
2022/12/07 06:03:33;;;;;;;17.63;9.07;;;;;;;;;;2129305;27;20049;-41
2022/12/07 06:04:35;;;;;;;20.40;9.73;;;;;;;;;;2129450;27;20050;-41
2022/12/07 06:05:36;;;;;;;22.58;10.55;;;;;;;;;;2129349;27;20043;-41
2022/12/07 06:06:37;;;;;;;20.73;9.63;;;;;;;;;;2129283;27;20099;-41
2022/12/07 06:07:38;;;;;;;23.67;9.70;;;;;;;;;;2129234;27;20047;-41
2022/12/07 06:08:39;;;;;;;24.23;11.75;;;;;;;;;;2129210;27;20046;-41
2022/12/07 06:09:41;;;;;;;20.98;10.13;;;;;;;;;;2129210;27;20058;-41
2022/12/07 06:10:42;;;;;;;19.10;9.65;;;;;;;;;;2129223;27;20552;-41
2022/12/07 06:13:03;;;;;;;18.33;9.00;;;;;;;;;;2129326;27;20050;-41
2022/12/07 06:14:03;;;;;;;18.45;9.48;;;;;;;;;;2129422;27;20047;-41
2022/12/07 06:15:05;;;;;;;19.35;9.73;;;;;;;;;;2129213;27;20086;-41
2022/12/07 06:16:06;;;;;;;20.77;9.73;;;;;;;;;;2129174;27;20047;-41
2022/12/07 06:17:08;;;;;;;19.75;8.85;;;;;;;;;;2129142;27;20069;-41
2022/12/07 06:18:09;;;;;;;18.00;9.02;;;;;;;;;;2129285;27;20129;-41
2022/12/07 06:19:10;;;;;;;14.68;8.30;;;;;;;;;;2129305;27;20455;-41
2022/12/07 06:20:11;;;;;;;17.05;9.73;;;;;;;;;;2129144;27;20047;-41
2022/12/07 06:21:12;;;;;;;18.40;7.80;;;;;;;;;;2129039;27;20509;-41
2022/12/07 06:22:13;;;;;;;19.33;10.18;;;;;;;;;;2129153;27;20123;-41
2022/12/07 06:23:14;;;;;;;17.88;10.23;;;;;;;;;;2129160;27;20495;-42
2022/12/07 06:24:16;;;;;;;21.27;8.77;;;;;;;;;;2129065;27;20075;-41
2022/12/07 06:25:18;;;;;;;19.50;10.70;;;;;;;;;;2129268;27;20050;-41
2022/12/07 06:26:18;;;;;;;20.42;10.60;;;;;;;;;;2128944;27;20051;-41
2022/12/07 06:27:20;;;;;;;18.52;9.55;;;;;;;;;;2129225;27;20047;-41
2022/12/07 06:28:20;;;;;;;15.90;8.75;;;;;;;;;;2129083;27;20047;-41
2022/12/07 06:29:22;;;;;;;28.42;14.00;;;;;;;;;;2129337;27;20058;-41
2022/12/07 06:30:23;;;;;;;38.17;16.15;;;;;;;;;;2129043;27;20407;-41
2022/12/07 06:31:24;;;;;;;33.47;13.43;;;;;;;;;;2129118;27;20043;-41
2022/12/07 06:32:25;;;;;;;28.17;14.43;;;;;;;;;;2128988;27;20453;-41
2022/12/07 06:33:27;;;;;;;61.63;22.15;;;;;;;;;;2128986;27;20039;-42
2022/12/07 06:34:28;;;;;;;36.75;15.88;;;;;;;;;;2129051;27;20059;-42
2022/12/07 06:35:29;;;;;;;45.92;18.63;;;;;;;;;;2129289;27;20047;-42
2022/12/07 06:36:30;;;;;;;77.13;29.30;;;;;;;;;;2128960;27;20095;-42
2022/12/07 06:37:31;;;;;;;46.67;15.98;;;;;;;;;;2128293;27;20441;-42
2022/12/07 06:38:32;;;;;;;40.55;15.90;;;;;;;;;;2123447;28;20051;-41
2022/12/07 06:39:33;;;;;;;35.95;12.88;;;;;;;;;;2123557;28;20058;-41
2022/12/07 06:40:35;;;;;;;66.72;25.05;;;;;;;;;;2122088;28;20047;-61
2022/12/07 06:41:36;;;;;;;61.60;19.50;;;;;;;;;;2115187;28;20047;-41
2022/12/07 06:42:37;;;;;;;83.22;26.23;;;;;;;;;;2115075;28;20046;-41
2022/12/07 06:43:38;;;;;;;43.73;18.60;;;;;;;;;;2114844;28;20049;-41
2022/12/07 06:44:40;;;;;;;41.80;15.57;;;;;;;;;;2114713;28;20039;-41
2022/12/07 06:45:41;;;;;;;28.05;14.20;;;;;;;;;;2114644;28;20145;-41
2022/12/07 06:46:42;;;;;;;25.75;13.02;;;;;;;;;;2114564;28;20047;-42
2022/12/07 06:47:43;;;;;;;25.83;13.48;;;;;;;;;;2114702;28;20071;-60
2022/12/07 06:48:46;;;;;;;27.15;17.80;;;;;;;;;;2114980;28;20090;-41
2022/12/07 06:49:47;;;;;;;28.63;11.77;;;;;;;;;;2115340;28;20047;-60
2022/12/07 06:50:48;;;;;;;28.55;16.90;;;;;;;;;;2115085;28;20040;-60
2022/12/07 06:51:55;;;;;;;19.38;9.88;;;;;;;;;;2115107;28;20419;-42
2022/12/07 06:52:56;;;;;;;22.45;11.13;;;;;;;;;;2115130;28;20488;-42
2022/12/07 06:53:57;;;;;;;28.20;12.23;;;;;;;;;;2115161;28;20039;-42
2022/12/07 06:54:59;;;;;;;28.13;17.10;;;;;;;;;;2115178;28;20138;-41
2022/12/07 06:56:01;;;;;;;21.67;13.57;;;;;;;;;;2115053;28;20042;-60
2022/12/07 06:57:02;;;;;;;20.10;10.63;;;;;;;;;;2115273;28;20051;-41
2022/12/07 06:58:03;;;;;;;22.88;13.25;;;;;;;;;;2115161;28;20039;-60
2022/12/07 06:59:05;;;;;;;17.85;9.80;;;;;;;;;;2115092;28;20044;-60
2022/12/07 07:00:06;;;;;;;20.17;9.80;;;;;;;;;;2115118;28;20044;-42
2022/12/07 07:01:09;;;;;;;20.80;10.85;;;;;;;;;;2114923;28;20047;-60
2022/12/07 07:02:10;;;;;;;26.08;13.45;;;;;;;;;;2115202;28;20043;-41
2022/12/07 07:03:11;;;;;;;17.80;10.40;;;;;;;;;;2115219;28;20044;-41
2022/12/07 10:49:49;;;;;;;32.56;18.79;;;;;;;;;;4259164;27;20323;-45
2022/12/07 10:50:57;;;;;;;28.13;16.35;;;;;;;;;;2130012;27;20047;-39
2022/12/07 10:52:02;;;;;;;35.97;20.58;;;;;;;;;;2129815;27;20080;-40
2022/12/07 10:53:18;;;;;;;27.08;18.10;;;;;;;;;;2129716;27;20539;-46
2022/12/07 10:54:26;;;;;;;30.70;16.63;;;;;;;;;;2125947;27;20051;-45
2022/12/07 10:55:41;;;;;;;34.75;20.80;;;;;;;;;;2129582;27;20050;-45
2022/12/07 10:56:49;;;;;;;36.63;21.92;;;;;;;;;;2123059;27;20403;-46
2022/12/07 10:58:03;;;;;;;34.13;18.27;;;;;;;;;;2121410;28;20377;-41
2022/12/07 10:59:14;;;;;;;32.42;19.98;;;;;;;;;;2121366;28;20421;-45
2022/12/07 11:00:17;;;;;;;32.35;18.58;;;;;;;;;;2121433;28;20058;-47
2022/12/07 11:01:22;;;;;;;30.48;19.73;;;;;;;;;;2121394;28;20058;-40
2022/12/07 11:02:26;;;;;;;31.30;19.15;;;;;;;;;;2121421;28;20067;-40
2022/12/07 11:03:33;;;;;;;31.58;19.10;;;;;;;;;;2121602;28;20039;-45
2022/12/07 11:04:37;;;;;;;33.13;17.70;;;;;;;;;;2121046;28;20058;-44
2022/12/07 11:05:45;;;;;;;31.02;18.48;;;;;;;;;;2120984;28;20048;-45
2022/12/07 11:06:51;;;;;;;26.38;16.88;;;;;;;;;;2121021;28;20043;-45
2022/12/07 11:07:59;;;;;;;27.80;13.80;;;;;;;;;;2120898;28;20039;-45
2022/12/07 11:09:24;;;;;;;29.27;18.92;;;;;;;;;;2121175;28;20043;-41
2022/12/07 11:10:50;;;;;;;37.03;16.67;;;;;;;;;;2121002;28;20074;-40
2022/12/07 11:11:54;;;;;;;36.28;19.02;;;;;;;;;;2121212;28;20055;-45
2022/12/07 11:13:04;;;;;;;31.00;19.27;;;;;;;;;;2120969;28;20576;-45
2022/12/07 11:14:15;;;;;;;32.45;18.17;;;;;;;;;;2120961;28;20040;-47
2022/12/07 11:15:19;;;;;;;30.58;18.00;;;;;;;;;;2121255;28;20046;-46
2022/12/07 11:16:24;;;;;;;31.90;19.48;;;;;;;;;;2121119;28;20112;-45
2022/12/07 11:17:31;;;;;;;28.48;14.50;;;;;;;;;;2120767;28;20434;-45
2022/12/07 11:18:34;;;;;;;30.27;18.88;;;;;;;;;;2121018;28;20047;-46
2022/12/07 11:19:50;;;;;;;30.98;19.67;;;;;;;;;;2120918;28;20413;-46
2022/12/07 11:20:57;;;;;;;29.40;17.15;;;;;;;;;;2121080;28;20043;-45
2022/12/07 11:21:58;;;;;;;29.63;17.77;;;;;;;;;;2120999;28;20497;-48
2022/12/07 11:23:04;;;;;;;32.13;19.63;;;;;;;;;;2120771;28;20053;-46
2022/12/07 11:24:09;;;;;;;27.15;16.95;;;;;;;;;;2120917;28;20043;-45
2022/12/07 11:25:20;;;;;;;30.13;19.30;;;;;;;;;;2120957;28;20101;-44
2022/12/07 11:26:35;;;;;;;29.08;14.88;;;;;;;;;;2120766;28;20047;-45
2022/12/07 11:27:37;;;;;;;34.70;20.35;;;;;;;;;;2120959;28;20467;-40
2022/12/07 11:28:43;;;;;;;32.70;17.13;;;;;;;;;;2121157;28;20062;-41
2022/12/07 11:29:51;;;;;;;32.15;19.98;;;;;;;;;;2120903;28;20487;-40
2022/12/07 11:30:57;;;;;;;31.50;19.95;;;;;;;;;;2120915;28;20582;-40
2022/12/07 11:32:04;;;;;;;34.90;18.40;;;;;;;;;;2121053;28;20096;-41
2022/12/07 11:33:10;;;;;;;34.20;21.45;;;;;;;;;;2120932;28;20051;-41
2022/12/07 11:34:17;;;;;;;34.25;20.98;;;;;;;;;;2120843;28;20550;-41
2022/12/07 11:35:22;;;;;;;32.63;18.60;;;;;;;;;;2120908;28;20043;-41
2022/12/07 11:36:31;;;;;;;32.28;20.85;;;;;;;;;;2120997;28;20047;-41
2022/12/07 11:37:34;;;;;;;32.05;18.88;;;;;;;;;;2120667;28;20062;-41
2022/12/07 11:38:43;;;;;;;32.42;16.73;;;;;;;;;;2121293;28;20039;-41
2022/12/07 11:39:47;;;;;;;32.55;19.45;;;;;;;;;;2120795;28;20483;-41
2022/12/07 11:40:49;;;;;;;29.35;19.70;;;;;;;;;;2120776;28;20130;-41
2022/12/07 11:41:52;;;;;;;31.55;19.90;;;;;;;;;;2120817;28;20086;-41
2022/12/07 11:42:57;;;;;;;32.35;18.92;;;;;;;;;;2120874;28;20044;-41
2022/12/07 11:44:02;;;;;;;32.67;20.33;;;;;;;;;;2120922;28;20050;-41
2022/12/07 11:45:10;;;;;;;28.63;14.98;;;;;;;;;;2120654;28;20051;-41
2022/12/07 11:46:14;;;;;;;26.98;18.63;;;;;;;;;;2120809;28;20476;-41
2022/12/07 11:47:18;;;;;;;31.05;16.77;;;;;;;;;;2120295;28;20082;-41
2022/12/07 11:48:23;;;;;;;28.20;18.63;;;;;;;;;;2120801;28;20043;-41
2022/12/07 11:49:27;;;;;;;34.17;18.95;;;;;;;;;;2116562;28;20039;-45
2022/12/07 11:50:33;;;;;;;29.70;19.05;;;;;;;;;;2115087;28;20236;-45
2022/12/07 11:51:37;;;;;;;30.95;18.67;;;;;;;;;;2115127;28;20093;-46
2022/12/07 11:52:43;;;;;;;30.20;15.65;;;;;;;;;;2115035;28;20063;-46
2022/12/07 11:53:48;;;;;;;39.28;21.05;;;;;;;;;;2115035;28;20048;-46
2022/12/07 11:54:51;;;;;;;33.10;20.23;;;;;;;;;;2115170;28;20058;-45
2022/12/07 11:55:54;;;;;;;30.13;19.15;;;;;;;;;;2115071;28;20043;-44
2022/12/07 11:56:57;;;;;;;30.55;19.15;;;;;;;;;;2115003;28;20488;-44
2022/12/07 11:58:03;;;;;;;29.83;18.45;;;;;;;;;;2114891;28;20059;-44
2022/12/07 11:59:10;;;;;;;28.95;17.52;;;;;;;;;;2115073;28;20512;-45
2022/12/07 12:00:15;;;;;;;29.30;18.85;;;;;;;;;;2115253;28;20499;-40
2022/12/07 12:01:27;;;;;;;29.35;17.40;;;;;;;;;;2115020;28;20318;-40
2022/12/07 12:02:32;;;;;;;34.85;20.83;;;;;;;;;;2114933;28;20540;-41
2022/12/07 12:03:35;;;;;;;32.28;17.65;;;;;;;;;;2115156;28;20058;-40
2022/12/07 12:04:45;;;;;;;34.97;19.70;;;;;;;;;;2115074;28;20142;-40
2022/12/07 12:05:46;;;;;;;27.52;15.60;;;;;;;;;;2115154;28;20060;-40
2022/12/07 12:06:48;;;;;;;35.45;20.90;;;;;;;;;;2115008;28;20151;-40
2022/12/07 12:07:53;;;;;;;32.90;20.85;;;;;;;;;;2114800;28;20549;-39
2022/12/07 12:09:15;;;;;;;31.95;17.95;;;;;;;;;;2114660;28;20067;-40
2022/12/07 12:10:42;;;;;;;36.75;22.42;;;;;;;;;;2114873;28;20055;-46
2022/12/07 12:11:49;;;;;;;32.85;20.38;;;;;;;;;;2114899;28;20047;-46
2022/12/07 12:13:14;;;;;;;30.25;15.90;;;;;;;;;;2115015;28;20109;-47
2022/12/07 12:14:41;;;;;;;35.63;19.85;;;;;;;;;;2105581;28;20044;-44
2022/12/07 12:15:58;;;;;;;35.08;20.55;;;;;;;;;;2115040;28;20083;-45
2022/12/07 12:17:12;;;;;;;36.53;22.00;;;;;;;;;;2115044;28;20058;-47
2022/12/07 12:18:21;;;;;;;34.72;19.98;;;;;;;;;;2114698;28;20047;-46
2022/12/07 12:19:25;;;;;;;35.90;21.50;;;;;;;;;;2114999;28;20469;-45
2022/12/07 12:20:29;;;;;;;33.42;20.85;;;;;;;;;;2114872;28;20044;-45
2022/12/07 12:21:32;;;;;;;39.40;21.90;;;;;;;;;;2114924;28;20051;-45
2022/12/07 12:22:36;;;;;;;36.80;22.35;;;;;;;;;;2115131;28;20044;-46
2022/12/07 12:23:41;;;;;;;27.73;14.98;;;;;;;;;;2114880;28;20487;-47
2022/12/07 12:24:43;;;;;;;34.05;21.30;;;;;;;;;;2114857;28;20047;-45
2022/12/07 12:25:46;;;;;;;33.90;21.13;;;;;;;;;;2115047;28;20055;-44
2022/12/07 12:26:52;;;;;;;35.70;22.17;;;;;;;;;;2114914;28;20044;-44
2022/12/07 12:27:55;;;;;;;35.58;20.75;;;;;;;;;;2114813;28;20043;-44
2022/12/07 12:28:59;;;;;;;33.40;21.40;;;;;;;;;;2114953;28;20047;-45
2022/12/07 12:30:02;;;;;;;36.47;21.45;;;;;;;;;;2115041;28;20047;-40
2022/12/07 12:31:07;;;;;;;36.60;23.17;;;;;;;;;;2115182;28;20044;-44
2022/12/07 12:32:13;;;;;;;36.55;22.50;;;;;;;;;;2114768;28;20100;-44
2022/12/07 12:33:19;;;;;;;35.47;20.42;;;;;;;;;;2114898;28;20044;-44
2022/12/07 12:34:31;;;;;;;40.42;23.40;;;;;;;;;;2114842;28;20048;-44
2022/12/07 12:35:33;;;;;;;39.95;23.13;;;;;;;;;;2114825;28;20044;-44
2022/12/07 12:36:45;;;;;;;34.53;21.20;;;;;;;;;;2114945;28;20468;-45
2022/12/07 12:37:47;;;;;;;31.50;20.50;;;;;;;;;;2114869;28;20071;-45
2022/12/07 12:38:48;;;;;;;37.70;24.10;;;;;;;;;;2114718;28;20806;-48
2022/12/07 12:40:04;;;;;;;36.22;23.98;;;;;;;;;;2114734;28;20059;-45
2022/12/07 12:41:06;;;;;;;36.63;20.27;;;;;;;;;;2113922;28;20494;-47
2022/12/07 12:42:17;;;;;;;41.60;24.83;;;;;;;;;;2114706;28;20052;-46
2022/12/07 12:43:37;;;;;;;35.05;19.85;;;;;;;;;;2114739;28;20052;-45
2022/12/07 12:44:39;;;;;;;40.90;24.02;;;;;;;;;;2114699;28;20492;-45
2022/12/07 12:45:40;;;;;;;37.63;21.95;;;;;;;;;;2114607;28;20446;-46
2022/12/07 12:46:49;;;;;;;41.27;24.57;;;;;;;;;;2114682;28;20094;-46
2022/12/07 12:48:00;;;;;;;37.42;19.48;;;;;;;;;;2114542;28;20462;-46
2022/12/07 12:49:14;;;;;;;37.08;22.92;;;;;;;;;;2114814;28;20047;-45
2022/12/07 12:50:20;;;;;;;35.85;18.92;;;;;;;;;;2114940;28;20040;-41
2022/12/07 12:51:36;;;;;;;32.78;23.45;;;;;;;;;;2114837;28;20039;-40
2022/12/07 12:52:50;;;;;;;35.40;19.20;;;;;;;;;;2114603;28;20067;-41
2022/12/07 12:53:51;;;;;;;36.60;22.02;;;;;;;;;;2114797;28;20044;-41
2022/12/07 12:54:58;;;;;;;39.17;24.15;;;;;;;;;;2114582;28;20047;-41
2022/12/07 12:56:11;;;;;;;35.67;19.35;;;;;;;;;;2114688;28;20498;-41
2022/12/07 12:57:15;;;;;;;37.80;22.60;;;;;;;;;;2114780;28;20561;-41
2022/12/07 12:58:29;;;;;;;36.17;23.00;;;;;;;;;;2114631;28;20132;-41
2022/12/07 12:59:31;;;;;;;31.77;19.15;;;;;;;;;;2114853;28;20043;-45
2022/12/07 13:00:32;;;;;;;;;;;;;;;;;;2114818;28;20043;-46
2022/12/07 13:01:41;;;;;;;30.77;17.73;;;;;;;;;;2114236;28;20332;-41
2022/12/07 13:02:48;;;;;;;36.55;22.60;;;;;;;;;;2114571;28;20118;-41
2022/12/07 13:03:52;;;;;;;32.85;21.00;;;;;;;;;;2114816;28;20047;-41
2022/12/07 13:04:55;;;;;;;35.17;19.40;;;;;;;;;;2114705;28;20055;-41
2022/12/07 13:06:10;;;;;;;43.50;25.08;;;;;;;;;;2114525;28;20043;-41
2022/12/07 13:07:13;;;;;;;36.85;19.23;;;;;;;;;;2114000;28;20085;-46
2022/12/07 13:08:17;;;;;;;41.88;25.00;;;;;;;;;;2114400;28;20039;-46
2022/12/07 13:09:21;;;;;;;38.15;23.02;;;;;;;;;;2114678;28;20043;-46
2022/12/07 13:10:37;;;;;;;34.00;22.10;;;;;;;;;;2114470;28;20044;-46
2022/12/07 13:11:41;;;;;;;38.35;18.48;;;;;;;;;;2110681;28;20506;-47
2022/12/07 13:12:42;;;;;;;40.38;24.27;;;;;;;;;;2114410;28;20039;-46
2022/12/07 13:13:43;;;;;;;43.17;25.30;;;;;;;;;;2114516;28;20450;-46
2022/12/07 13:14:55;;;;;;;41.67;24.90;;;;;;;;;;2114456;28;20404;-48
2022/12/07 13:16:11;;;;;;;42.50;25.17;;;;;;;;;;2114526;28;20451;-47
2022/12/07 13:17:32;;;;;;;34.83;17.02;;;;;;;;;;2113799;28;20282;-45
2022/12/07 13:18:35;;;;;;;40.30;23.40;;;;;;;;;;2114546;28;20101;-48
2022/12/07 13:19:58;;;;;;;39.88;21.48;;;;;;;;;;2114361;28;20043;-46
2022/12/07 13:20:59;;;;;;;;;;;;;;;;;;2115088;28;20048;-46
2022/12/07 13:22:00;;;;;;;37.25;19.88;;;;;;;;;;2114390;28;19926;-43
2022/12/07 13:23:01;;;;;;;39.00;25.37;;;;;;;;;;2114589;28;20043;-46
2022/12/07 13:24:07;;;;;;;45.88;26.35;;;;;;;;;;2114466;28;20400;-45
2022/12/07 13:25:10;;;;;;;42.58;20.50;;;;;;;;;;2114570;28;20485;-46
2022/12/07 13:26:15;;;;;;;43.47;26.83;;;;;;;;;;2114400;28;20431;-45
2022/12/07 13:27:18;;;;;;;44.53;26.42;;;;;;;;;;2114391;28;20126;-46
2022/12/07 13:28:21;;;;;;;44.90;26.27;;;;;;;;;;2114176;28;20044;-47
2022/12/07 13:29:23;;;;;;;42.30;23.73;;;;;;;;;;2114695;28;20067;-46
2022/12/07 13:30:23;;;;;;;;;;;;;;;;;;2114852;28;20485;-47
2022/12/07 13:31:30;;;;;;;40.30;19.42;;;;;;;;;;2114560;28;19920;-45
2022/12/07 13:32:31;;;;;;;44.25;26.00;;;;;;;;;;2114415;28;20055;-47
2022/12/07 13:33:34;;;;;;;41.67;25.73;;;;;;;;;;2114529;28;20048;-44
2022/12/07 13:34:36;;;;;;;36.00;18.55;;;;;;;;;;2114475;28;20069;-44
2022/12/07 13:35:37;;;;;;;;;;;;;;;;;;2114846;28;20048;-44
2022/12/07 13:36:39;;;;;;;37.03;18.13;;;;;;;;;;2114455;28;19931;-45
2022/12/07 13:37:40;;;;;;;33.55;22.80;;;;;;;;;;2114457;28;20096;-44
2022/12/07 13:38:48;;;;;;;38.57;24.30;;;;;;;;;;2114603;28;20055;-45
2022/12/07 13:39:51;;;;;;;30.80;18.08;;;;;;;;;;2114167;28;20044;-45
2022/12/07 13:41:02;;;;;;;37.97;23.40;;;;;;;;;;2114398;28;20052;-45
2022/12/07 13:42:10;;;;;;;33.40;17.95;;;;;;;;;;2114533;28;20048;-46
2022/12/07 13:43:14;;;;;;;35.38;22.90;;;;;;;;;;2114186;28;20044;-47
2022/12/07 13:44:15;;;;;;;34.78;21.88;;;;;;;;;;2114319;28;20101;-47
2022/12/07 13:45:21;;;;;;;41.08;24.73;;;;;;;;;;2114477;28;20043;-44
2022/12/07 13:46:25;;;;;;;30.55;16.98;;;;;;;;;;2114487;28;20051;-40
2022/12/07 13:47:31;;;;;;;35.30;22.13;;;;;;;;;;2114144;28;20051;-40
2022/12/07 13:48:34;;;;;;;31.92;20.13;;;;;;;;;;2114200;28;20047;-40
2022/12/07 13:49:38;;;;;;;32.35;22.00;;;;;;;;;;2114316;28;20048;-40
2022/12/07 13:50:39;;;;;;;34.03;19.52;;;;;;;;;;2114131;28;20051;-40
2022/12/07 13:51:40;;;;;;;35.07;21.90;;;;;;;;;;2114347;28;20486;-44
2022/12/07 13:52:43;;;;;;;36.13;22.10;;;;;;;;;;2114084;28;20284;-45
2022/12/07 13:53:46;;;;;;;41.17;23.70;;;;;;;;;;2114325;28;20454;-46
2022/12/07 13:54:48;;;;;;;37.63;21.25;;;;;;;;;;2114059;28;20507;-45
2022/12/07 13:55:50;;;;;;;36.38;23.80;;;;;;;;;;2114133;28;20045;-45
2022/12/07 13:56:55;;;;;;;34.40;20.38;;;;;;;;;;2114178;28;20509;-44
2022/12/07 13:57:56;;;;;;;38.22;24.52;;;;;;;;;;2114135;28;20055;-46
2022/12/07 13:58:57;;;;;;;38.30;20.87;;;;;;;;;;2114033;28;20051;-45
2022/12/07 13:59:58;;;;;;;37.33;23.42;;;;;;;;;;2114063;28;20040;-45
2022/12/07 14:00:59;;;;;;;38.95;23.10;;;;;;;;;;2114178;28;20051;-46
2022/12/07 14:02:01;;;;;;;35.60;19.55;;;;;;;;;;2114121;28;20464;-44
2022/12/07 14:03:03;;;;;;;37.30;23.23;;;;;;;;;;2113973;28;20389;-45
2022/12/07 14:04:18;;;;;;;37.65;21.55;;;;;;;;;;2114059;28;20055;-44
2022/12/07 14:05:23;;;;;;;33.63;18.95;;;;;;;;;;2114197;28;20044;-45
2022/12/07 14:06:26;;;;;;;36.75;21.92;;;;;;;;;;2114072;28;20047;-45
2022/12/07 14:07:29;;;;;;;36.50;21.00;;;;;;;;;;2114128;28;20047;-45
2022/12/07 14:08:30;;;;;;;32.88;20.85;;;;;;;;;;2114144;28;20060;-40
2022/12/07 14:09:31;;;;;;;34.92;22.75;;;;;;;;;;2114197;28;20047;-40
2022/12/07 14:10:33;;;;;;;37.53;21.80;;;;;;;;;;2114069;28;20051;-40
2022/12/07 14:11:34;;;;;;;;;;;;;;;;;;2114656;28;20062;-40
2022/12/07 14:12:36;;;;;;;31.83;17.15;;;;;;;;;;2113633;28;20368;-40
2022/12/07 14:13:40;;;;;;;42.08;24.08;;;;;;;;;;2113885;28;20048;-40
2022/12/07 14:14:47;;;;;;;33.38;18.98;;;;;;;;;;2113615;28;21692;-46
2022/12/07 14:15:49;;;;;;;36.92;21.88;;;;;;;;;;2113563;28;20052;-40
2022/12/07 14:16:58;;;;;;;33.60;19.20;;;;;;;;;;2113686;28;20048;-45
2022/12/07 14:18:03;;;;;;;35.42;20.05;;;;;;;;;;2113481;28;20047;-44
2022/12/07 14:19:04;;;;;;;35.45;21.85;;;;;;;;;;2113789;28;20492;-44
2022/12/07 14:20:20;;;;;;;40.58;24.13;;;;;;;;;;2113634;28;20051;-40
2022/12/07 14:21:23;;;;;;;35.05;21.73;;;;;;;;;;2113054;28;20438;-45
2022/12/07 14:22:26;;;;;;;38.92;21.40;;;;;;;;;;2113683;28;20051;-44
2022/12/07 14:23:27;;;;;;;35.20;20.35;;;;;;;;;;2113895;28;20508;-40